createdAt,value
2017-07-26T00:00:01.861Z,62.05
2017-07-26T00:00:42.315Z,62.15
2017-07-26T00:01:22.767Z,62.05
2017-07-26T00:02:03.214Z,62.05
2017-07-26T00:02:43.671Z,61.86
2017-07-26T00:03:24.124Z,61.86
2017-07-26T00:04:04.571Z,62.05
2017-07-26T00:04:45.026Z,61.96
2017-07-26T00:05:25.484Z,61.47
2017-07-26T00:06:05.936Z,61.67
2017-07-26T00:06:46.398Z,61.86
2017-07-26T00:07:26.848Z,61.67
2017-07-26T00:08:08.103Z,61.57
2017-07-26T00:08:48.560Z,61.77
2017-07-26T00:09:29.011Z,61.86
2017-07-26T00:10:09.461Z,61.77
2017-07-26T00:10:49.916Z,61.77
2017-07-26T00:11:30.361Z,61.67
2017-07-26T00:12:10.823Z,62.05
2017-07-26T00:12:51.267Z,62.05
2017-07-26T00:13:31.720Z,62.25
2017-07-26T00:14:12.177Z,62.15
2017-07-26T00:14:52.633Z,62.05
2017-07-26T00:15:33.088Z,62.05
2017-07-26T00:16:13.544Z,61.96
2017-07-26T00:16:54.000Z,62.05
2017-07-26T00:17:34.452Z,62.15
2017-07-26T00:18:14.897Z,62.05
2017-07-26T00:18:55.355Z,62.05
2017-07-26T00:19:35.813Z,62.05
2017-07-26T00:20:16.274Z,62.25
2017-07-26T00:20:56.725Z,62.25
2017-07-26T00:21:37.186Z,62.25
2017-07-26T00:22:17.648Z,62.15
2017-07-26T00:22:58.086Z,62.15
2017-07-26T00:23:38.536Z,62.44
2017-07-26T00:24:18.986Z,62.05
2017-07-26T00:24:59.440Z,61.96
2017-07-26T00:25:39.893Z,61.96
2017-07-26T00:26:20.349Z,61.96
2017-07-26T00:27:00.804Z,62.34
2017-07-26T00:27:41.257Z,61.77
2017-07-26T00:28:21.758Z,62.05
2017-07-26T00:29:02.205Z,61.77
2017-07-26T00:29:42.661Z,62.15
2017-07-26T00:30:23.118Z,62.05
2017-07-26T00:31:03.564Z,61.86
2017-07-26T00:31:44.015Z,62.05
2017-07-26T00:32:24.469Z,62.15
2017-07-26T00:33:04.922Z,62.15
2017-07-26T00:33:45.376Z,61.96
2017-07-26T00:34:25.823Z,61.96
2017-07-26T00:35:06.284Z,62.05
2017-07-26T00:35:46.748Z,62.05
2017-07-26T00:36:27.203Z,61.86
2017-07-26T00:37:07.656Z,61.77
2017-07-26T00:37:48.107Z,62.05
2017-07-26T00:38:28.560Z,61.96
2017-07-26T00:39:09.012Z,61.96
2017-07-26T00:39:49.469Z,62.15
2017-07-26T00:40:29.924Z,61.96
2017-07-26T00:41:10.376Z,62.15
2017-07-26T00:41:50.855Z,62.34
2017-07-26T00:42:31.283Z,61.96
2017-07-26T00:43:11.737Z,62.25
2017-07-26T00:43:52.190Z,62.15
2017-07-26T00:44:32.653Z,61.96
2017-07-26T00:45:13.111Z,61.96
2017-07-26T00:45:53.574Z,61.86
2017-07-26T00:46:34.029Z,62.25
2017-07-26T00:47:14.492Z,62.15
2017-07-26T00:47:54.947Z,62.15
2017-07-26T00:48:35.402Z,62.25
2017-07-26T00:49:15.856Z,62.15
2017-07-26T00:49:56.306Z,61.96
2017-07-26T00:50:36.765Z,62.15
2017-07-26T00:51:17.231Z,62.05
2017-07-26T00:51:57.684Z,62.15
2017-07-26T00:52:38.138Z,62.15
2017-07-26T00:53:18.596Z,61.96
2017-07-26T00:53:59.050Z,62.25
2017-07-26T00:54:39.502Z,62.25
2017-07-26T00:55:19.965Z,62.25
2017-07-26T00:56:00.418Z,62.05
2017-07-26T00:56:40.857Z,62.05
2017-07-26T00:57:21.317Z,62.05
2017-07-26T00:58:01.773Z,62.05
2017-07-26T00:58:42.227Z,62.25
2017-07-26T00:59:22.679Z,62.18
2017-07-26T01:00:03.133Z,62.57
2017-07-26T01:00:43.587Z,62.15
2017-07-26T01:01:24.031Z,61.86
2017-07-26T01:02:04.476Z,61.89
2017-07-26T01:02:44.927Z,62.08
2017-07-26T01:03:25.375Z,61.99
2017-07-26T01:04:05.832Z,61.96
2017-07-26T01:04:46.277Z,62.05
2017-07-26T01:05:26.718Z,62.18
2017-07-26T01:06:07.184Z,61.96
2017-07-26T01:06:47.627Z,61.47
2017-07-26T01:07:28.079Z,61.6
2017-07-26T01:08:08.525Z,61.57
2017-07-26T01:08:48.975Z,61.7
2017-07-26T01:09:29.432Z,61.86
2017-07-26T01:10:09.877Z,61.57
2017-07-26T01:10:50.327Z,61.8
2017-07-26T01:11:30.778Z,61.89
2017-07-26T01:12:11.240Z,61.7
2017-07-26T01:12:51.697Z,61.8
2017-07-26T01:13:32.146Z,61.6
2017-07-26T01:14:12.607Z,61.7
2017-07-26T01:14:53.066Z,61.89
2017-07-26T01:15:33.503Z,61.8
2017-07-26T01:16:13.964Z,61.77
2017-07-26T01:16:54.427Z,61.77
2017-07-26T01:17:34.880Z,61.89
2017-07-26T01:18:15.338Z,61.89
2017-07-26T01:18:55.784Z,61.77
2017-07-26T01:19:36.231Z,61.7
2017-07-26T01:20:16.749Z,61.8
2017-07-26T01:20:57.203Z,61.86
2017-07-26T01:21:37.659Z,61.77
2017-07-26T01:22:18.114Z,61.77
2017-07-26T01:22:58.580Z,61.86
2017-07-26T01:23:39.039Z,61.77
2017-07-26T01:24:19.501Z,61.89
2017-07-26T01:24:59.950Z,61.8
2017-07-26T01:25:40.400Z,61.77
2017-07-26T01:26:20.855Z,61.77
2017-07-26T01:27:01.314Z,61.77
2017-07-26T01:27:41.767Z,61.57
2017-07-26T01:28:22.230Z,61.77
2017-07-26T01:29:02.689Z,61.77
2017-07-26T01:29:43.137Z,61.8
2017-07-26T01:30:23.597Z,61.86
2017-07-26T01:31:04.048Z,61.67
2017-07-26T01:31:44.513Z,61.96
2017-07-26T01:32:24.976Z,62.25
2017-07-26T01:33:05.433Z,62.05
2017-07-26T01:33:45.886Z,62.05
2017-07-26T01:35:43.576Z,62.08
2017-07-26T01:36:24.027Z,62.15
2017-07-26T01:37:04.479Z,62.15
2017-07-26T01:37:44.938Z,62.34
2017-07-26T01:38:25.392Z,62.15
2017-07-26T01:39:05.855Z,62.05
2017-07-26T01:39:46.306Z,62.15
2017-07-26T01:40:26.747Z,62.15
2017-07-26T01:41:07.200Z,62.05
2017-07-26T01:41:47.655Z,62.15
2017-07-26T01:42:28.107Z,62.25
2017-07-26T01:43:08.560Z,62.25
2017-07-26T01:43:49.016Z,62.54
2017-07-26T01:44:29.472Z,62.15
2017-07-26T01:45:09.912Z,62.18
2017-07-26T01:45:50.370Z,62.54
2017-07-26T01:46:30.810Z,62.28
2017-07-26T01:47:11.263Z,62.15
2017-07-26T01:47:51.714Z,62.05
2017-07-26T01:48:32.178Z,62.08
2017-07-26T01:49:12.629Z,62.05
2017-07-26T01:49:53.088Z,61.86
2017-07-26T01:50:33.554Z,61.96
2017-07-26T01:51:13.992Z,61.86
2017-07-26T01:51:54.479Z,61.86
2017-07-26T01:52:34.911Z,61.67
2017-07-26T01:53:15.369Z,61.89
2017-07-26T01:53:55.826Z,62.15
2017-07-26T01:54:36.284Z,61.96
2017-07-26T01:55:16.721Z,61.96
2017-07-26T01:55:57.176Z,62.05
2017-07-26T01:56:37.635Z,62.05
2017-07-26T01:57:18.091Z,62.05
2017-07-26T01:57:58.545Z,61.86
2017-07-26T01:58:38.997Z,61.86
2017-07-26T01:59:19.444Z,61.96
2017-07-26T01:59:59.906Z,62.05
2017-07-26T02:00:40.366Z,62.15
2017-07-26T02:01:20.827Z,62.34
2017-07-26T02:02:01.284Z,62.05
2017-07-26T02:02:41.739Z,61.86
2017-07-26T02:03:22.191Z,62.34
2017-07-26T02:04:02.647Z,62.34
2017-07-26T02:04:43.102Z,62.34
2017-07-26T02:05:23.560Z,62.54
2017-07-26T02:06:04.035Z,62.15
2017-07-26T02:06:44.505Z,62.15
2017-07-26T02:07:24.966Z,62.25
2017-07-26T02:08:05.423Z,61.96
2017-07-26T02:08:45.878Z,62.25
2017-07-26T02:09:26.330Z,62.05
2017-07-26T02:10:06.783Z,62.05
2017-07-26T02:10:47.236Z,62.05
2017-07-26T02:11:27.685Z,62.05
2017-07-26T02:12:08.135Z,62.15
2017-07-26T02:12:48.590Z,62.25
2017-07-26T02:13:29.044Z,62.15
2017-07-26T02:14:09.503Z,61.96
2017-07-26T02:14:49.963Z,62.05
2017-07-26T02:15:30.414Z,61.96
2017-07-26T02:16:10.871Z,62.15
2017-07-26T02:16:51.326Z,62.05
2017-07-26T02:17:31.807Z,62.15
2017-07-26T02:18:12.253Z,62.05
2017-07-26T02:18:52.710Z,62.05
2017-07-26T02:19:33.157Z,61.96
2017-07-26T02:20:13.607Z,61.96
2017-07-26T02:20:54.061Z,61.57
2017-07-26T02:21:34.510Z,61.86
2017-07-26T02:22:14.971Z,62.05
2017-07-26T02:22:55.428Z,62.15
2017-07-26T02:23:35.878Z,62.15
2017-07-26T02:24:16.332Z,62.15
2017-07-26T02:24:56.828Z,62.05
2017-07-26T02:25:37.284Z,62.05
2017-07-26T02:26:17.741Z,62.25
2017-07-26T02:26:58.198Z,61.96
2017-07-26T02:27:38.650Z,62.15
2017-07-26T02:28:19.106Z,62.25
2017-07-26T02:28:59.559Z,62.25
2017-07-26T02:29:40.005Z,62.25
2017-07-26T02:30:20.459Z,61.96
2017-07-26T02:31:00.913Z,62.15
2017-07-26T02:31:41.371Z,62.25
2017-07-26T02:32:21.826Z,62.15
2017-07-26T02:33:02.277Z,62.25
2017-07-26T02:33:42.731Z,62.05
2017-07-26T02:34:23.198Z,62.15
2017-07-26T02:35:03.654Z,61.86
2017-07-26T02:35:44.109Z,61.96
2017-07-26T02:36:24.561Z,62.15
2017-07-26T02:37:05.020Z,61.96
2017-07-26T02:37:45.476Z,61.77
2017-07-26T02:38:25.937Z,61.96
2017-07-26T02:39:06.394Z,61.96
2017-07-26T02:39:46.846Z,61.77
2017-07-26T02:40:27.304Z,61.96
2017-07-26T02:41:07.760Z,62.15
2017-07-26T02:41:48.209Z,61.86
2017-07-26T02:42:28.662Z,61.96
2017-07-26T02:43:09.116Z,62.34
2017-07-26T02:43:49.556Z,62.15
2017-07-26T02:44:30.011Z,62.15
2017-07-26T02:45:10.470Z,62.25
2017-07-26T02:45:50.924Z,62.15
2017-07-26T02:46:31.381Z,62.15
2017-07-26T02:47:11.834Z,62.25
2017-07-26T02:47:52.294Z,62.15
2017-07-26T02:48:32.750Z,61.96
2017-07-26T02:49:13.202Z,62.05
2017-07-26T02:49:53.652Z,62.05
2017-07-26T02:50:34.118Z,62.05
2017-07-26T02:51:14.566Z,62.05
2017-07-26T02:51:55.018Z,62.05
2017-07-26T02:52:35.472Z,62.05
2017-07-26T02:53:15.929Z,61.96
2017-07-26T02:53:56.383Z,62.15
2017-07-26T02:54:36.837Z,62.05
2017-07-26T02:55:17.288Z,62.05
2017-07-26T02:55:57.755Z,62.05
2017-07-26T02:56:38.209Z,62.05
2017-07-26T02:57:18.661Z,62.05
2017-07-26T02:57:59.122Z,61.96
2017-07-26T02:58:39.570Z,62.15
2017-07-26T02:59:20.033Z,62.05
2017-07-26T03:00:00.489Z,61.96
2017-07-26T03:00:40.941Z,61.96
2017-07-26T03:01:21.398Z,62.05
2017-07-26T03:02:01.863Z,62.15
2017-07-26T03:02:42.297Z,62.15
2017-07-26T03:03:22.755Z,62.05
2017-07-26T03:04:03.214Z,62.15
2017-07-26T03:04:43.675Z,61.96
2017-07-26T03:05:24.124Z,62.05
2017-07-26T03:06:04.609Z,61.96
2017-07-26T03:06:45.031Z,61.96
2017-07-26T03:07:25.485Z,62.05
2017-07-26T03:08:05.942Z,62.05
2017-07-26T03:08:46.397Z,62.05
2017-07-26T03:09:26.853Z,62.15
2017-07-26T03:10:07.308Z,61.86
2017-07-26T03:10:47.762Z,61.96
2017-07-26T03:11:28.216Z,61.96
2017-07-26T03:12:08.670Z,61.96
2017-07-26T03:12:49.115Z,61.96
2017-07-26T03:13:29.569Z,61.96
2017-07-26T03:14:10.029Z,61.77
2017-07-26T03:14:50.487Z,62.15
2017-07-26T03:15:30.939Z,61.86
2017-07-26T03:16:11.398Z,62.34
2017-07-26T03:16:52.002Z,62.15
2017-07-26T03:17:32.458Z,62.05
2017-07-26T03:18:12.901Z,61.96
2017-07-26T03:18:53.347Z,62.05
2017-07-26T03:19:33.796Z,62.05
2017-07-26T03:20:14.249Z,62.05
2017-07-26T03:20:54.700Z,62.05
2017-07-26T03:21:35.156Z,61.96
2017-07-26T03:22:15.611Z,61.86
2017-07-26T03:22:56.071Z,62.25
2017-07-26T03:23:36.523Z,62.15
2017-07-26T03:24:16.968Z,62.15
2017-07-26T03:24:57.423Z,62.15
2017-07-26T03:25:37.876Z,62.25
2017-07-26T03:26:18.328Z,62.15
2017-07-26T03:26:58.784Z,62.34
2017-07-26T03:27:39.250Z,61.96
2017-07-26T03:28:19.695Z,62.15
2017-07-26T03:29:00.158Z,61.96
2017-07-26T03:29:40.615Z,62.25
2017-07-26T03:30:21.072Z,62.15
2017-07-26T03:31:01.531Z,62.15
2017-07-26T03:31:41.984Z,62.15
2017-07-26T03:32:22.435Z,61.96
2017-07-26T03:33:02.895Z,62.15
2017-07-26T03:33:43.356Z,62.05
2017-07-26T03:34:23.803Z,62.15
2017-07-26T03:35:04.255Z,61.96
2017-07-26T03:35:44.708Z,62.05
2017-07-26T03:36:25.163Z,62.15
2017-07-26T03:37:05.628Z,61.96
2017-07-26T03:37:46.073Z,62.05
2017-07-26T03:38:26.528Z,62.05
2017-07-26T03:39:06.983Z,62.05
2017-07-26T03:39:47.440Z,61.96
2017-07-26T03:40:27.890Z,62.18
2017-07-26T03:41:08.348Z,62.18
2017-07-26T03:41:48.798Z,61.99
2017-07-26T03:42:29.256Z,62.08
2017-07-26T03:43:11.117Z,62.08
2017-07-26T03:43:51.566Z,61.99
2017-07-26T03:44:32.017Z,62.08
2017-07-26T03:45:12.487Z,61.89
2017-07-26T03:45:52.913Z,61.89
2017-07-26T03:46:33.395Z,62.37
2017-07-26T03:47:13.809Z,62.18
2017-07-26T03:47:54.259Z,62.18
2017-07-26T03:48:34.715Z,62.08
2017-07-26T03:49:15.172Z,62.08
2017-07-26T03:49:55.623Z,62.08
2017-07-26T03:50:36.079Z,61.89
2017-07-26T03:51:16.523Z,62.08
2017-07-26T03:51:56.978Z,62.08
2017-07-26T03:52:37.427Z,62.18
2017-07-26T03:53:17.883Z,61.8
2017-07-26T03:53:58.351Z,62.08
2017-07-26T03:54:38.788Z,62.18
2017-07-26T03:55:19.241Z,62.28
2017-07-26T03:55:59.691Z,62.08
2017-07-26T03:56:40.147Z,61.99
2017-07-26T03:57:20.598Z,62.18
2017-07-26T03:58:01.042Z,62.28
2017-07-26T03:58:41.507Z,62.28
2017-07-26T03:59:21.963Z,62.47
2017-07-26T04:00:02.421Z,62.47
2017-07-26T04:00:42.872Z,62.37
2017-07-26T04:01:23.315Z,62.28
2017-07-26T04:02:03.782Z,62.08
2017-07-26T04:02:44.236Z,62.37
2017-07-26T04:03:24.687Z,61.99
2017-07-26T04:04:05.144Z,62.18
2017-07-26T04:04:45.603Z,62.08
2017-07-26T04:05:26.051Z,62.28
2017-07-26T04:06:06.508Z,62.18
2017-07-26T04:06:46.963Z,62.18
2017-07-26T04:07:27.420Z,62.18
2017-07-26T04:08:07.870Z,62.18
2017-07-26T04:08:48.323Z,61.99
2017-07-26T04:09:28.794Z,61.99
2017-07-26T04:10:09.244Z,62.08
2017-07-26T04:10:49.695Z,61.89
2017-07-26T04:11:30.154Z,61.99
2017-07-26T04:12:10.613Z,62.18
2017-07-26T04:12:51.067Z,62.18
2017-07-26T04:13:32.820Z,62.08
2017-07-26T04:14:13.277Z,62.08
2017-07-26T04:14:53.733Z,62.18
2017-07-26T04:15:34.186Z,62.18
2017-07-26T04:16:14.641Z,62.18
2017-07-26T04:16:55.093Z,62.18
2017-07-26T04:17:35.552Z,62.18
2017-07-26T04:18:16.008Z,62.18
2017-07-26T04:18:56.486Z,61.7
2017-07-26T04:19:36.955Z,61.7
2017-07-26T04:20:17.608Z,61.7
2017-07-26T04:20:58.053Z,61.6
2017-07-26T04:23:10.868Z,61.8
2017-07-26T04:23:51.339Z,61.51
2017-07-26T04:24:31.792Z,61.22
2017-07-26T04:25:12.242Z,61.22
2017-07-26T04:25:52.698Z,61.34
2017-07-26T04:26:33.148Z,61.31
2017-07-26T04:27:13.600Z,61.6
2017-07-26T04:27:54.048Z,61.31
2017-07-26T04:28:34.508Z,61.31
2017-07-26T04:29:14.958Z,61.34
2017-07-26T04:29:55.411Z,61.7
2017-07-26T04:30:35.867Z,61.41
2017-07-26T04:31:16.363Z,61.44
2017-07-26T04:31:56.806Z,61.15
2017-07-26T04:32:37.261Z,61.41
2017-07-26T04:33:17.712Z,61.31
2017-07-26T04:33:58.172Z,61.44
2017-07-26T04:34:38.624Z,61.63
2017-07-26T04:35:19.068Z,61.44
2017-07-26T04:35:59.516Z,61.41
2017-07-26T04:36:39.973Z,61.54
2017-07-26T04:37:20.423Z,61.15
2017-07-26T04:38:00.875Z,60.96
2017-07-26T04:38:41.329Z,60.96
2017-07-26T04:39:21.784Z,60.96
2017-07-26T04:40:02.236Z,61.15
2017-07-26T04:40:42.690Z,60.96
2017-07-26T04:41:23.148Z,60.93
2017-07-26T04:42:03.605Z,61.25
2017-07-26T04:42:44.086Z,61.15
2017-07-26T04:43:24.548Z,60.76
2017-07-26T04:44:05.007Z,61.05
2017-07-26T04:44:45.462Z,60.96
2017-07-26T04:45:25.919Z,60.96
2017-07-26T04:46:06.375Z,60.86
2017-07-26T04:46:46.831Z,60.86
2017-07-26T04:47:27.265Z,60.86
2017-07-26T04:48:07.719Z,60.96
2017-07-26T04:48:48.174Z,60.96
2017-07-26T04:49:28.626Z,60.86
2017-07-26T04:50:09.079Z,60.86
2017-07-26T04:50:49.532Z,61.15
2017-07-26T04:51:29.981Z,61.05
2017-07-26T04:52:10.445Z,61.05
2017-07-26T04:52:50.891Z,61.15
2017-07-26T04:53:31.339Z,61.05
2017-07-26T04:54:11.797Z,60.96
2017-07-26T04:54:52.262Z,61.02
2017-07-26T04:55:32.727Z,61.02
2017-07-26T04:56:13.177Z,61.05
2017-07-26T04:56:53.626Z,61.15
2017-07-26T04:57:34.075Z,60.83
2017-07-26T04:58:14.534Z,60.96
2017-07-26T04:58:54.987Z,60.96
2017-07-26T04:59:35.439Z,60.83
2017-07-26T05:00:15.894Z,60.96
2017-07-26T05:00:56.350Z,60.93
2017-07-26T05:01:36.807Z,61.02
2017-07-26T05:02:17.264Z,61.12
2017-07-26T05:02:57.725Z,61.02
2017-07-26T05:03:38.177Z,61.12
2017-07-26T05:04:18.628Z,61.02
2017-07-26T05:04:59.075Z,60.83
2017-07-26T05:05:39.561Z,60.83
2017-07-26T05:06:20.050Z,60.83
2017-07-26T05:07:00.469Z,60.93
2017-07-26T05:07:40.902Z,60.93
2017-07-26T05:08:21.367Z,60.93
2017-07-26T05:09:01.822Z,61.12
2017-07-26T05:09:42.272Z,60.83
2017-07-26T05:10:22.728Z,61.02
2017-07-26T05:11:03.192Z,61.02
2017-07-26T05:11:43.646Z,60.64
2017-07-26T05:12:24.087Z,60.83
2017-07-26T05:13:04.537Z,61.12
2017-07-26T05:13:44.987Z,60.93
2017-07-26T05:14:25.454Z,60.83
2017-07-26T05:15:05.906Z,60.83
2017-07-26T05:15:46.352Z,60.73
2017-07-26T05:16:26.811Z,61.12
2017-07-26T05:17:07.264Z,61.12
2017-07-26T05:17:47.720Z,61.31
2017-07-26T05:18:28.174Z,61.15
2017-07-26T05:19:08.620Z,61.02
2017-07-26T05:19:49.080Z,61.02
2017-07-26T05:20:29.533Z,60.83
2017-07-26T05:21:09.983Z,60.83
2017-07-26T05:21:50.470Z,61.02
2017-07-26T05:22:30.903Z,61.02
2017-07-26T05:23:11.358Z,60.93
2017-07-26T05:23:51.811Z,60.93
2017-07-26T05:24:32.266Z,60.93
2017-07-26T05:25:12.724Z,61.02
2017-07-26T05:25:53.171Z,61.02
2017-07-26T05:26:33.624Z,60.93
2017-07-26T05:27:14.073Z,60.73
2017-07-26T05:27:54.531Z,60.73
2017-07-26T05:28:34.986Z,60.73
2017-07-26T05:29:15.436Z,61.02
2017-07-26T05:29:55.886Z,61.31
2017-07-26T05:30:36.335Z,61.31
2017-07-26T05:31:16.784Z,60.93
2017-07-26T05:31:57.239Z,60.93
2017-07-26T05:32:37.698Z,60.93
2017-07-26T05:33:18.149Z,61.22
2017-07-26T05:33:58.602Z,61.02
2017-07-26T05:34:39.055Z,60.93
2017-07-26T05:35:19.504Z,60.93
2017-07-26T05:35:59.957Z,61.12
2017-07-26T05:36:40.419Z,61.12
2017-07-26T05:37:20.873Z,61.02
2017-07-26T05:38:01.333Z,61.12
2017-07-26T05:38:41.791Z,61.51
2017-07-26T05:39:22.230Z,61.12
2017-07-26T05:40:02.687Z,61.31
2017-07-26T05:40:43.137Z,61.41
2017-07-26T05:41:23.598Z,61.41
2017-07-26T05:42:04.054Z,61.31
2017-07-26T05:42:44.509Z,61.41
2017-07-26T05:43:24.972Z,61.41
2017-07-26T05:44:05.424Z,61.41
2017-07-26T05:44:45.883Z,61.6
2017-07-26T05:45:26.338Z,61.51
2017-07-26T05:46:06.797Z,61.6
2017-07-26T05:46:47.253Z,61.31
2017-07-26T05:47:27.718Z,61.51
2017-07-26T05:48:08.178Z,61.41
2017-07-26T05:48:48.637Z,61.41
2017-07-26T05:49:29.095Z,61.41
2017-07-26T05:50:09.552Z,61.12
2017-07-26T05:50:50.005Z,61.31
2017-07-26T05:51:30.461Z,61.41
2017-07-26T05:52:10.912Z,61.41
2017-07-26T05:52:52.179Z,61.6
2017-07-26T05:53:32.636Z,61.22
2017-07-26T05:54:13.088Z,61.51
2017-07-26T05:54:53.541Z,61.41
2017-07-26T05:55:33.990Z,61.41
2017-07-26T05:56:14.448Z,61.41
2017-07-26T05:56:54.901Z,61.31
2017-07-26T05:57:35.353Z,61.41
2017-07-26T05:58:15.819Z,61.41
2017-07-26T05:58:56.280Z,61.31
2017-07-26T05:59:36.721Z,61.41
2017-07-26T06:00:17.772Z,61.31
2017-07-26T06:00:58.096Z,61.12
2017-07-26T06:01:38.550Z,61.02
2017-07-26T06:02:19.000Z,61.22
2017-07-26T06:02:59.458Z,60.93
2017-07-26T06:03:39.916Z,60.93
2017-07-26T06:04:20.368Z,60.83
2017-07-26T06:05:00.826Z,60.93
2017-07-26T06:05:41.275Z,60.93
2017-07-26T06:06:21.734Z,60.93
2017-07-26T06:07:02.205Z,61.02
2017-07-26T06:07:42.678Z,61.12
2017-07-26T06:08:23.076Z,61.12
2017-07-26T06:09:03.537Z,61.02
2017-07-26T06:09:43.983Z,60.93
2017-07-26T06:10:24.441Z,60.93
2017-07-26T06:11:04.905Z,61.12
2017-07-26T06:11:45.357Z,61.22
2017-07-26T06:12:25.812Z,60.93
2017-07-26T06:13:06.256Z,61.12
2017-07-26T06:13:46.711Z,61.12
2017-07-26T06:14:27.169Z,61.12
2017-07-26T06:15:07.623Z,61.22
2017-07-26T06:15:48.070Z,61.31
2017-07-26T06:16:28.524Z,61.02
2017-07-26T06:17:08.973Z,61.22
2017-07-26T06:17:49.433Z,61.12
2017-07-26T06:18:29.889Z,61.12
2017-07-26T06:19:10.341Z,60.83
2017-07-26T06:19:50.791Z,61.31
2017-07-26T06:20:31.258Z,61.31
2017-07-26T06:21:11.711Z,61.12
2017-07-26T06:21:52.163Z,60.73
2017-07-26T06:22:32.615Z,60.73
2017-07-26T06:23:13.072Z,60.73
2017-07-26T06:23:53.524Z,61.22
2017-07-26T06:24:33.973Z,60.73
2017-07-26T06:25:14.410Z,61.02
2017-07-26T06:25:54.863Z,60.73
2017-07-26T06:26:35.316Z,60.73
2017-07-26T06:27:15.794Z,60.93
2017-07-26T06:27:56.247Z,60.93
2017-07-26T06:28:36.706Z,61.12
2017-07-26T06:29:17.198Z,60.83
2017-07-26T06:29:57.651Z,61.02
2017-07-26T06:30:38.107Z,61.12
2017-07-26T06:31:18.557Z,60.83
2017-07-26T06:31:59.012Z,60.93
2017-07-26T06:32:39.467Z,61.12
2017-07-26T06:33:19.922Z,60.83
2017-07-26T06:34:00.371Z,61.12
2017-07-26T06:34:40.830Z,60.83
2017-07-26T06:35:21.282Z,61.02
2017-07-26T06:36:01.735Z,60.93
2017-07-26T06:36:42.191Z,61.02
2017-07-26T06:37:22.651Z,60.93
2017-07-26T06:38:03.106Z,61.02
2017-07-26T06:38:43.557Z,61.02
2017-07-26T06:39:24.002Z,61.12
2017-07-26T06:40:04.458Z,61.02
2017-07-26T06:40:44.914Z,61.12
2017-07-26T06:41:25.421Z,61.02
2017-07-26T06:42:05.874Z,60.93
2017-07-26T06:42:46.324Z,61.12
2017-07-26T06:43:26.783Z,61.02
2017-07-26T06:44:07.237Z,61.02
2017-07-26T06:44:47.684Z,60.93
2017-07-26T06:45:28.147Z,60.83
2017-07-26T06:46:08.605Z,61.12
2017-07-26T06:46:49.049Z,61.12
2017-07-26T06:47:29.498Z,60.73
2017-07-26T06:48:09.950Z,60.64
2017-07-26T06:48:50.405Z,60.83
2017-07-26T06:49:30.856Z,60.93
2017-07-26T06:50:11.315Z,60.93
2017-07-26T06:50:51.766Z,60.93
2017-07-26T06:51:32.213Z,61.12
2017-07-26T06:52:12.671Z,61.02
2017-07-26T06:52:53.122Z,60.73
2017-07-26T06:53:33.577Z,60.64
2017-07-26T06:54:14.026Z,60.54
2017-07-26T06:54:54.480Z,60.64
2017-07-26T06:55:34.935Z,60.73
2017-07-26T06:56:15.389Z,60.83
2017-07-26T06:56:55.845Z,60.54
2017-07-26T06:57:36.302Z,60.54
2017-07-26T06:58:16.760Z,60.73
2017-07-26T06:58:57.208Z,60.64
2017-07-26T06:59:37.656Z,60.44
2017-07-26T07:00:18.115Z,60.54
2017-07-26T07:00:58.566Z,60.44
2017-07-26T07:01:39.024Z,60.54
2017-07-26T07:02:19.474Z,60.44
2017-07-26T07:02:59.944Z,60.64
2017-07-26T07:03:40.399Z,60.64
2017-07-26T07:04:20.857Z,60.73
2017-07-26T07:05:01.307Z,60.64
2017-07-26T07:05:41.757Z,60.54
2017-07-26T07:06:22.205Z,60.64
2017-07-26T07:07:02.659Z,60.64
2017-07-26T07:07:43.118Z,60.73
2017-07-26T07:08:23.578Z,60.44
2017-07-26T07:09:04.035Z,60.44
2017-07-26T07:09:44.494Z,60.35
2017-07-26T07:10:24.966Z,60.54
2017-07-26T07:11:05.428Z,60.54
2017-07-26T07:11:45.889Z,60.44
2017-07-26T07:12:26.348Z,60.54
2017-07-26T07:13:06.802Z,60.54
2017-07-26T07:13:47.254Z,60.54
2017-07-26T07:14:27.712Z,60.54
2017-07-26T07:15:08.175Z,60.44
2017-07-26T07:15:48.629Z,60.73
2017-07-26T07:16:29.084Z,60.44
2017-07-26T07:17:09.539Z,60.73
2017-07-26T07:17:49.994Z,60.83
2017-07-26T07:18:30.448Z,60.73
2017-07-26T07:19:10.899Z,60.54
2017-07-26T07:19:51.347Z,60.73
2017-07-26T07:20:31.828Z,60.35
2017-07-26T07:21:12.255Z,60.54
2017-07-26T07:21:52.705Z,60.44
2017-07-26T07:22:33.167Z,60.73
2017-07-26T07:23:13.625Z,60.54
2017-07-26T07:23:54.074Z,60.83
2017-07-26T07:24:34.529Z,60.54
2017-07-26T07:25:14.983Z,60.93
2017-07-26T07:25:55.434Z,60.73
2017-07-26T07:26:35.903Z,60.44
2017-07-26T07:27:16.356Z,60.44
2017-07-26T07:27:56.814Z,60.54
2017-07-26T07:28:37.275Z,60.54
2017-07-26T07:29:17.725Z,60.54
2017-07-26T07:29:58.178Z,60.35
2017-07-26T07:30:38.634Z,60.44
2017-07-26T07:31:19.090Z,60.44
2017-07-26T07:31:59.554Z,60.54
2017-07-26T07:32:39.999Z,60.64
2017-07-26T07:33:20.450Z,60.54
2017-07-26T07:34:00.912Z,60.73
2017-07-26T07:34:41.360Z,60.54
2017-07-26T07:35:21.817Z,60.73
2017-07-26T07:36:02.298Z,60.73
2017-07-26T07:36:42.751Z,60.73
2017-07-26T07:37:23.205Z,60.73
2017-07-26T07:38:03.673Z,60.64
2017-07-26T07:38:44.125Z,60.64
2017-07-26T07:39:24.582Z,60.44
2017-07-26T07:40:05.042Z,60.44
2017-07-26T07:40:45.515Z,60.35
2017-07-26T07:41:25.975Z,60.54
2017-07-26T07:42:06.425Z,60.54
2017-07-26T07:42:46.942Z,60.54
2017-07-26T07:43:27.396Z,60.73
2017-07-26T07:44:07.850Z,60.73
2017-07-26T07:44:48.370Z,60.54
2017-07-26T07:45:28.871Z,60.44
2017-07-26T07:46:09.313Z,60.44
2017-07-26T07:46:49.758Z,60.54
2017-07-26T07:47:30.224Z,60.54
2017-07-26T07:48:10.673Z,60.73
2017-07-26T07:48:51.126Z,60.44
2017-07-26T07:49:31.577Z,60.44
2017-07-26T07:50:12.097Z,60.54
2017-07-26T07:50:52.549Z,60.44
2017-07-26T07:51:33.008Z,60.73
2017-07-26T07:52:13.465Z,60.73
2017-07-26T07:52:53.914Z,60.73
2017-07-26T07:53:34.376Z,60.73
2017-07-26T07:54:14.829Z,60.73
2017-07-26T07:54:55.280Z,60.64
2017-07-26T07:55:35.741Z,60.54
2017-07-26T07:56:16.196Z,60.64
2017-07-26T07:56:56.653Z,60.64
2017-07-26T07:57:37.102Z,60.54
2017-07-26T07:58:17.554Z,60.54
2017-07-26T07:58:58.018Z,60.73
2017-07-26T07:59:38.475Z,60.73
2017-07-26T08:00:18.931Z,60.64
2017-07-26T08:00:59.385Z,60.64
2017-07-26T08:01:39.833Z,60.54
2017-07-26T08:02:20.287Z,60.54
2017-07-26T08:03:00.746Z,60.54
2017-07-26T08:03:41.207Z,60.73
2017-07-26T08:04:21.701Z,60.73
2017-07-26T08:05:02.213Z,60.54
2017-07-26T08:05:42.667Z,60.54
2017-07-26T08:06:23.160Z,60.64
2017-07-26T08:07:03.573Z,60.73
2017-07-26T08:07:44.032Z,60.44
2017-07-26T08:08:24.489Z,60.44
2017-07-26T08:09:04.940Z,60.35
2017-07-26T08:09:45.395Z,60.54
2017-07-26T08:10:25.850Z,60.35
2017-07-26T08:11:06.308Z,60.54
2017-07-26T08:11:46.761Z,60.44
2017-07-26T08:12:27.217Z,60.73
2017-07-26T08:13:07.675Z,60.54
2017-07-26T08:13:48.180Z,60.25
2017-07-26T08:14:28.638Z,60.73
2017-07-26T08:15:09.104Z,60.54
2017-07-26T08:15:49.559Z,60.73
2017-07-26T08:16:30.008Z,60.54
2017-07-26T08:17:10.465Z,60.25
2017-07-26T08:17:50.925Z,60.44
2017-07-26T08:18:31.375Z,60.73
2017-07-26T08:19:11.838Z,60.35
2017-07-26T08:19:52.297Z,60.64
2017-07-26T08:20:32.747Z,60.64
2017-07-26T08:21:13.202Z,60.54
2017-07-26T08:21:53.665Z,60.73
2017-07-26T08:22:34.114Z,60.64
2017-07-26T08:23:14.568Z,60.44
2017-07-26T08:23:55.024Z,60.44
2017-07-26T08:24:35.480Z,60.35
2017-07-26T08:25:15.925Z,60.54
2017-07-26T08:25:56.379Z,60.44
2017-07-26T08:26:36.829Z,60.44
2017-07-26T08:27:17.333Z,60.64
2017-07-26T08:27:57.790Z,60.64
2017-07-26T08:28:38.248Z,60.44
2017-07-26T08:29:18.709Z,60.64
2017-07-26T08:29:59.163Z,60.54
2017-07-26T08:30:39.619Z,60.54
2017-07-26T08:31:20.074Z,60.73
2017-07-26T08:32:00.526Z,60.64
2017-07-26T08:32:40.995Z,60.44
2017-07-26T08:33:21.451Z,60.54
2017-07-26T08:34:01.906Z,60.54
2017-07-26T08:34:42.365Z,60.64
2017-07-26T08:35:22.807Z,60.35
2017-07-26T08:36:03.263Z,60.44
2017-07-26T08:36:43.723Z,60.54
2017-07-26T08:37:24.179Z,60.44
2017-07-26T08:38:04.633Z,60.06
2017-07-26T08:38:45.087Z,60.25
2017-07-26T08:39:25.550Z,60.06
2017-07-26T08:40:05.996Z,60.16
2017-07-26T08:40:46.446Z,60.25
2017-07-26T08:41:26.912Z,60.18
2017-07-26T08:42:07.382Z,60.25
2017-07-26T08:42:47.846Z,60.28
2017-07-26T08:43:28.288Z,60.18
2017-07-26T08:44:08.748Z,60.28